Time;durP1;ratioP1;P1;durP2;ratioP2;P2;SDS_P1;SDS_P2;PMS_P1;PMS_P2;Temp;Humidity;BMP_temperature;BMP_pressure;BME280_temperature;BME280_humidity;BME280_pressure;Samples;Min_cycle;Max_cycle;Signal;HPM_P1;HPM_P2
2022/11/19 00:00:37;;;;;;;3.45;3.25;;;1.10;99.90;;;;;;5031153;28;20068;-75
2022/11/19 00:03:02;;;;;;;2.58;2.47;;;1.00;99.90;;;;;;5031075;28;20079;-75
2022/11/19 00:05:28;;;;;;;2.50;2.40;;;1.10;99.90;;;;;;5031078;28;20021;-77
2022/11/19 00:07:53;;;;;;;2.03;2.03;;;1.10;99.90;;;;;;5030935;28;20033;-75
2022/11/19 00:10:19;;;;;;;3.08;2.88;;;1.00;99.90;;;;;;5031061;28;20029;-75
2022/11/19 00:12:53;;;;;;;2.50;2.40;;;1.00;99.90;;;;;;5014850;28;20025;-75
2022/11/19 00:15:19;;;;;;;2.63;2.53;;;1.20;99.90;;;;;;5016976;28;20018;-75
2022/11/19 00:17:45;;;;;;;2.28;2.17;;;1.20;99.90;;;;;;5034454;28;20467;-75
2022/11/19 00:20:10;;;;;;;3.17;2.97;;;1.20;99.90;;;;;;5034643;28;20057;-75
2022/11/19 00:22:36;;;;;;;2.47;2.38;;;1.10;99.90;;;;;;5034326;28;20507;-75
2022/11/19 00:25:02;;;;;;;2.95;2.75;;;1.00;99.90;;;;;;5034569;28;20025;-75
2022/11/19 00:27:29;;;;;;;5.97;2.67;;;0.90;99.90;;;;;;5034225;28;20032;-75
2022/11/19 00:29:54;;;;;;;2.80;2.70;;;0.80;99.90;;;;;;5008433;28;20026;-76
2022/11/19 00:32:20;;;;;;;2.35;2.25;;;0.90;99.90;;;;;;5028032;28;20033;-76
2022/11/19 00:34:45;;;;;;;3.80;3.03;;;0.90;99.90;;;;;;5004981;28;20403;-76
2022/11/19 00:37:11;;;;;;;3.33;3.22;;;0.90;99.90;;;;;;5034020;28;20013;-75
2022/11/19 00:39:36;;;;;;;2.10;2.10;;;1.00;99.90;;;;;;5034243;28;20159;-75
2022/11/19 00:42:02;;;;;;;2.80;2.70;;;1.00;99.90;;;;;;5034272;28;20030;-75
2022/11/19 00:44:28;;;;;;;4.28;3.47;;;1.00;99.90;;;;;;5034187;28;20030;-75
2022/11/19 00:46:53;;;;;;;2.70;2.50;;;0.90;99.90;;;;;;5033871;28;20026;-75
2022/11/19 00:49:19;;;;;;;2.00;2.00;;;0.90;99.90;;;;;;5033992;28;20032;-75
2022/11/19 00:51:44;;;;;;;6.18;3.72;;;1.00;99.90;;;;;;5033789;28;20040;-75
2022/11/19 00:54:10;;;;;;;4.03;3.65;;;0.90;99.90;;;;;;5016154;28;20025;-75
2022/11/19 00:56:35;;;;;;;3.13;2.78;;;0.90;99.90;;;;;;5033941;28;20468;-75
2022/11/19 00:59:01;;;;;;;2.22;2.13;;;1.00;99.90;;;;;;5033776;28;20464;-75
2022/11/19 01:01:26;;;;;;;4.00;2.85;;;1.00;99.90;;;;;;5033809;28;20040;-75
2022/11/19 01:03:53;;;;;;;3.10;3.00;;;1.00;99.90;;;;;;5033659;28;20104;-75
2022/11/19 01:06:21;;;;;;;8.70;8.15;;;1.00;99.90;;;;;;5033689;28;20033;-75
2022/11/19 01:08:48;;;;;;;3.35;3.05;;;1.00;99.90;;;;;;5033504;28;20108;-75
2022/11/19 01:11:16;;;;;;;3.47;3.33;;;1.10;99.90;;;;;;5033414;28;20040;-76
2022/11/19 01:13:42;;;;;;;1.75;1.75;;;1.00;99.90;;;;;;5033464;28;20017;-74
2022/11/19 01:16:11;;;;;;;1.80;1.80;;;0.90;99.90;;;;;;5033451;28;20090;-74
2022/11/19 01:18:37;;;;;;;1.75;1.75;;;1.00;99.90;;;;;;5033256;28;20112;-74
2022/11/19 01:21:05;;;;;;;14.77;13.32;;;1.10;99.90;;;;;;5033358;28;20032;-74
2022/11/19 01:23:32;;;;;;;1.65;1.65;;;1.20;99.90;;;;;;5032743;28;20036;-77
2022/11/19 01:25:57;;;;;;;2.78;2.60;;;1.10;99.90;;;;;;5033271;28;20025;-76
2022/11/19 01:28:23;;;;;;;2.20;2.10;;;1.10;99.90;;;;;;5033135;28;20033;-76
2022/11/19 01:30:49;;;;;;;3.17;2.97;;;1.00;99.90;;;;;;5015327;28;20038;-75
2022/11/19 01:33:14;;;;;;;3.83;3.38;;;1.00;99.90;;;;;;5015292;28;20112;-75
2022/11/19 01:35:40;;;;;;;4.05;2.78;;;1.10;99.90;;;;;;5019585;28;20029;-75
2022/11/19 01:38:06;;;;;;;2.45;2.35;;;1.00;99.90;;;;;;5015186;28;20026;-74
2022/11/19 01:40:39;;;;;;;3.38;3.10;;;1.00;99.90;;;;;;5033027;28;20092;-74
2022/11/19 01:43:04;;;;;;;1.92;1.80;;;1.00;99.90;;;;;;5033068;28;20068;-74
2022/11/19 01:45:39;;;;;;;3.00;2.80;;;0.90;99.90;;;;;;5032945;28;20057;-75
2022/11/19 01:48:18;;;;;;;8.10;5.30;;;1.00;99.90;;;;;;5032729;28;20422;-75
2022/11/19 01:50:48;;;;;;;3.00;2.78;;;0.90;99.90;;;;;;5032814;28;20044;-74
2022/11/19 01:53:14;;;;;;;6.53;4.20;;;0.70;99.90;;;;;;5032778;28;20021;-74
2022/11/19 01:55:41;;;;;;;1.83;1.83;;;0.70;99.90;;;;;;5015113;28;20030;-74
2022/11/19 01:58:08;;;;;;;2.25;2.15;;;0.70;99.90;;;;;;5032565;28;20394;-74
2022/11/19 02:00:34;;;;;;;2.13;2.05;;;0.80;99.90;;;;;;5032660;28;20383;-74
2022/11/19 02:03:00;;;;;;;3.38;2.63;;;0.80;99.90;;;;;;5032515;28;20458;-74
2022/11/19 02:05:27;;;;;;;3.72;3.42;;;0.70;99.90;;;;;;5032665;28;20053;-75
2022/11/19 02:07:55;;;;;;;2.65;2.55;;;0.70;99.90;;;;;;5032322;28;20395;-74
2022/11/19 02:10:39;;;;;;;1.67;1.67;;;0.90;99.90;;;;;;5032437;28;20021;-74
2022/11/19 02:13:26;;;;;;;4.85;3.53;;;0.80;99.90;;;;;;5014669;28;20065;-74
2022/11/19 02:16:22;;;;;;;6.28;3.50;;;0.90;99.90;;;;;;5032450;28;20032;-75
2022/11/19 02:18:55;;;;;;;1.45;1.45;;;0.90;99.90;;;;;;5022949;28;20024;-74
2022/11/19 02:21:46;;;;;;;1.67;1.67;;;0.80;99.90;;;;;;5032635;28;20041;-74
2022/11/19 02:24:52;;;;;;;1.45;1.45;;;0.80;99.90;;;;;;5032161;28;20037;-75
2022/11/19 02:27:27;;;;;;;2.30;2.22;;;0.80;99.90;;;;;;5032183;28;20396;-75
2022/11/19 02:30:08;;;;;;;3.30;3.15;;;0.80;99.90;;;;;;5018699;28;20034;-75
2022/11/19 02:32:38;;;;;;;2.40;2.30;;;0.80;99.90;;;;;;5032092;28;20030;-75
2022/11/19 02:35:04;;;;;;;3.05;2.85;;;0.80;99.90;;;;;;5031745;28;20064;-75
2022/11/19 02:37:42;;;;;;;3.10;2.85;;;0.80;99.90;;;;;;5031273;28;20415;-75
2022/11/19 02:40:15;;;;;;;1.90;1.90;;;0.80;99.90;;;;;;5032160;28;20591;-75
2022/11/19 02:42:56;;;;;;;2.33;2.22;;;0.80;99.90;;;;;;5031991;28;20053;-75
2022/11/19 02:45:32;;;;;;;2.05;1.95;;;0.70;99.90;;;;;;5031961;28;20021;-76
2022/11/19 02:48:23;;;;;;;2.00;1.90;;;0.70;99.90;;;;;;5031832;28;20036;-76
2022/11/19 02:50:52;;;;;;;3.10;2.92;;;0.70;99.90;;;;;;5007460;28;20929;-76
2022/11/19 02:53:18;;;;;;;4.55;3.83;;;0.60;99.90;;;;;;5031841;28;20517;-76
2022/11/19 03:06:47;;;;;;;4.28;3.92;;;0.70;99.90;;;;;;5031906;28;20083;-75
2022/11/19 03:09:13;;;;;;;1.13;1.13;;;0.90;99.90;;;;;;5031729;28;20038;-75
2022/11/19 03:11:41;;;;;;;6.57;2.35;;;0.70;99.90;;;;;;5013833;28;20116;-75
2022/11/19 03:18:11;;;;;;;15.20;2.63;;;0.60;99.90;;;;;;5018085;28;20036;-76
2022/11/19 03:20:45;;;;;;;1.40;1.40;;;0.70;99.90;;;;;;5030536;28;20646;-75
2022/11/19 03:23:32;;;;;;;4.32;3.10;;;0.80;99.90;;;;;;5013953;28;20369;-76
2022/11/19 03:26:08;;;;;;;1.55;1.52;;;0.70;99.90;;;;;;5014188;28;20033;-75
2022/11/19 03:28:36;;;;;;;2.08;1.98;;;0.70;99.90;;;;;;5031126;28;20029;-75
2022/11/19 03:31:04;;;;;;;1.55;1.55;;;0.70;99.90;;;;;;5013566;28;20053;-76
2022/11/19 03:33:36;;;;;;;2.55;2.45;;;0.80;99.90;;;;;;5031452;28;20037;-75
2022/11/19 03:36:30;;;;;;;2.35;2.17;;;0.70;99.90;;;;;;5013694;28;20029;-75
2022/11/19 03:39:02;;;;;;;1.85;1.75;;;0.60;99.90;;;;;;5031109;28;20113;-75
2022/11/19 03:41:29;;;;;;;4.32;4.13;;;0.70;99.90;;;;;;5031386;28;20033;-74
2022/11/19 03:44:01;;;;;;;1.45;1.45;;;0.60;99.90;;;;;;5031261;28;20042;-76
2022/11/19 03:46:29;;;;;;;2.80;2.60;;;0.70;99.90;;;;;;5013629;28;20034;-75
2022/11/19 03:48:56;;;;;;;1.30;1.30;;;0.70;99.90;;;;;;5016883;28;20098;-75
2022/11/19 03:51:34;;;;;;;1.45;1.45;;;0.70;99.90;;;;;;5035124;28;20064;-75
2022/11/19 03:53:59;;;;;;;2.22;2.13;;;0.60;99.90;;;;;;5035066;28;20083;-75
2022/11/19 03:56:28;;;;;;;1.50;1.50;;;0.60;99.90;;;;;;5017434;28;20025;-75
2022/11/19 03:58:53;;;;;;;1.27;1.27;;;0.60;99.90;;;;;;5034875;28;20410;-75
2022/11/19 04:01:20;;;;;;;1.75;1.55;;;0.60;99.90;;;;;;5035109;28;20033;-75
2022/11/19 04:04:34;;;;;;;2.83;2.72;;;0.70;99.90;;;;;;5034708;28;20032;-75
2022/11/19 04:06:31;;;;;;;1.60;1.60;;;0.80;99.90;;;;;;5034633;28;20065;-75
2022/11/19 04:08:56;;;;;;;1.80;1.80;;;0.90;99.90;;;;;;5034615;28;20538;-74
2022/11/19 04:11:22;;;;;;;1.58;1.58;;;0.80;99.90;;;;;;5034668;28;20107;-75
2022/11/19 04:13:47;;;;;;;1.38;1.38;;;0.80;99.90;;;;;;5016979;28;20191;-75
2022/11/19 04:16:13;;;;;;;1.20;1.20;;;0.80;99.90;;;;;;5034836;28;20096;-75
2022/11/19 04:18:39;;;;;;;1.40;1.40;;;0.70;99.90;;;;;;5016751;28;20507;-75
2022/11/19 04:21:04;;;;;;;1.42;1.42;;;0.60;99.90;;;;;;5034694;28;20112;-75
2022/11/19 04:23:30;;;;;;;1.20;1.20;;;0.60;99.90;;;;;;5034533;28;20033;-75
2022/11/19 04:25:56;;;;;;;1.67;1.58;;;0.70;99.90;;;;;;5016816;28;20021;-74
2022/11/19 04:28:21;;;;;;;1.48;1.48;;;0.80;99.90;;;;;;5016604;28;20021;-74
2022/11/19 04:30:47;;;;;;;1.42;1.42;;;0.80;99.90;;;;;;5016571;28;20018;-74
2022/11/19 04:33:12;;;;;;;1.20;1.20;;;0.80;99.90;;;;;;5034264;28;20415;-74
2022/11/19 04:35:38;;;;;;;3.03;2.72;;;0.70;99.90;;;;;;5034353;28;20471;-74
2022/11/19 04:38:03;;;;;;;1.83;1.73;;;0.70;99.90;;;;;;5034094;28;20529;-75
2022/11/19 04:40:29;;;;;;;3.60;3.40;;;0.70;99.90;;;;;;5034267;28;20044;-74
2022/11/19 04:42:54;;;;;;;11.65;3.90;;;0.60;99.90;;;;;;5034155;28;20051;-74
2022/11/19 04:45:20;;;;;;;3.03;2.70;;;0.60;99.90;;;;;;5034185;28;20035;-76
2022/11/19 04:47:45;;;;;;;1.50;1.50;;;0.60;99.90;;;;;;5033887;28;20048;-76
2022/11/19 04:50:11;;;;;;;1.20;1.20;;;0.70;99.90;;;;;;5034046;28;20394;-75
2022/11/19 04:52:36;;;;;;;1.42;1.42;;;0.70;99.90;;;;;;5033948;28;20479;-75
2022/11/19 04:55:02;;;;;;;1.10;1.10;;;0.70;99.90;;;;;;5033966;28;20033;-75
2022/11/19 04:57:28;;;;;;;1.77;1.77;;;0.70;99.90;;;;;;5033833;28;20024;-75
2022/11/19 04:59:53;;;;;;;1.25;1.25;;;0.80;99.90;;;;;;5032768;28;20061;-76
2022/11/19 05:02:19;;;;;;;1.42;1.40;;;0.80;99.90;;;;;;5026111;28;20105;-75
2022/11/19 05:04:44;;;;;;;2.08;1.98;;;0.90;99.90;;;;;;5027166;28;20057;-75
2022/11/19 05:07:10;;;;;;;1.20;1.20;;;0.80;99.90;;;;;;5021618;28;20474;-76
2022/11/19 05:09:35;;;;;;;1.40;1.40;;;0.70;99.90;;;;;;5005630;28;20082;-76
2022/11/19 05:12:01;;;;;;;1.67;1.65;;;0.80;99.90;;;;;;5033773;28;20109;-76
2022/11/19 05:14:26;;;;;;;1.60;1.50;;;0.80;99.90;;;;;;5033579;28;20380;-75
2022/11/19 05:16:52;;;;;;;2.15;1.52;;;0.90;99.90;;;;;;5033380;28;20021;-75
2022/11/19 05:19:17;;;;;;;1.50;1.50;;;0.80;99.90;;;;;;5015599;28;20021;-74
2022/11/19 05:21:43;;;;;;;1.65;1.65;;;0.80;99.90;;;;;;5015496;28;20034;-75
2022/11/19 05:24:08;;;;;;;1.30;1.27;;;0.80;99.90;;;;;;5033215;28;20052;-74
2022/11/19 05:26:34;;;;;;;1.30;1.30;;;0.80;99.90;;;;;;5033474;28;20033;-75
2022/11/19 05:28:59;;;;;;;3.17;2.97;;;0.80;99.90;;;;;;5033221;28;20021;-75
2022/11/19 05:31:25;;;;;;;1.95;1.83;;;0.60;99.90;;;;;;5015501;28;20026;-74
2022/11/19 05:33:50;;;;;;;2.60;2.50;;;0.80;99.90;;;;;;5033199;28;20026;-74
2022/11/19 05:36:16;;;;;;;1.85;1.83;;;0.60;99.90;;;;;;5015583;28;20021;-74
2022/11/19 05:38:41;;;;;;;7.68;5.38;;;0.60;99.90;;;;;;5033091;28;20053;-74
2022/11/19 05:41:07;;;;;;;1.27;1.27;;;0.50;99.90;;;;;;5015485;28;20462;-74
2022/11/19 05:43:33;;;;;;;2.88;2.38;;;0.50;99.90;;;;;;5033050;28;20036;-74
2022/11/19 05:46:00;;;;;;;5.45;4.90;;;0.50;99.90;;;;;;5033112;28;20025;-75
2022/11/19 05:48:25;;;;;;;1.08;1.08;;;0.40;99.90;;;;;;5019418;28;20569;-75
2022/11/19 05:50:51;;;;;;;5.22;4.70;;;0.40;99.90;;;;;;5026001;28;20033;-76
2022/11/19 05:53:16;;;;;;;3.50;3.08;;;0.50;99.90;;;;;;5009053;28;20392;-74
2022/11/19 05:55:42;;;;;;;4.35;3.05;;;0.40;99.90;;;;;;5013240;28;20499;-75
2022/11/19 05:58:07;;;;;;;2.83;2.65;;;0.40;99.90;;;;;;5012938;28;20032;-76
2022/11/19 06:00:33;;;;;;;5.00;2.90;;;0.30;99.90;;;;;;5008255;28;20068;-76
2022/11/19 06:02:58;;;;;;;8.48;8.10;;;0.40;99.90;;;;;;5012954;28;20037;-75
2022/11/19 06:05:24;;;;;;;11.45;6.05;;;0.30;99.90;;;;;;5026198;28;20040;-75
2022/11/19 06:07:49;;;;;;;6.00;3.42;;;0.20;99.90;;;;;;5025996;28;20422;-75
2022/11/19 06:10:15;;;;;;;2.47;2.28;;;0.30;99.90;;;;;;5025511;28;20025;-75
2022/11/19 06:12:43;;;;;;;2.20;2.10;;;0.20;99.90;;;;;;5033004;28;20093;-75
2022/11/19 06:15:09;;;;;;;1.83;1.83;;;0.10;99.90;;;;;;5033018;28;20551;-75
2022/11/19 06:17:34;;;;;;;1.65;1.58;;;0.10;99.90;;;;;;5032101;28;20057;-75
2022/11/19 06:20:00;;;;;;;1.00;1.00;;;0.10;99.90;;;;;;5032421;28;20052;-76
2022/11/19 06:22:25;;;;;;;1.20;1.20;;;0.10;99.90;;;;;;5032336;28;20021;-76
2022/11/19 06:24:51;;;;;;;3.83;3.50;;;0.20;99.90;;;;;;5014874;28;20033;-75
2022/11/19 06:27:16;;;;;;;2.05;1.95;;;0.30;99.90;;;;;;5032109;28;20083;-75
2022/11/19 06:29:42;;;;;;;1.10;1.10;;;0.20;99.90;;;;;;5032189;28;20029;-76
2022/11/19 06:32:08;;;;;;;2.30;2.13;;;0.10;99.90;;;;;;5032203;28;20029;-75
2022/11/19 06:34:33;;;;;;;3.00;2.33;;;0.00;99.90;;;;;;5014419;28;20027;-75
2022/11/19 06:36:59;;;;;;;2.33;2.22;;;-0.10;99.90;;;;;;5031946;28;20041;-75
2022/11/19 06:39:24;;;;;;;1.40;1.40;;;-0.10;99.90;;;;;;5032117;28;20069;-75
2022/11/19 06:41:50;;;;;;;5.55;3.63;;;0.00;99.90;;;;;;5031982;28;20064;-75
2022/11/19 06:44:16;;;;;;;2.35;2.25;;;-0.20;99.90;;;;;;5014133;28;20033;-75
2022/11/19 06:46:41;;;;;;;1.30;1.30;;;-0.20;99.90;;;;;;5031961;28;20059;-75
2022/11/19 06:49:08;;;;;;;6.63;4.32;;;-0.10;99.90;;;;;;5031769;28;20235;-76
2022/11/19 06:51:33;;;;;;;1.33;1.33;;;-0.20;99.90;;;;;;5031832;28;20029;-77
2022/11/19 06:53:59;;;;;;;4.88;2.75;;;-0.20;99.90;;;;;;5014209;28;20534;-75
2022/11/19 06:56:25;;;;;;;1.38;1.38;;;-0.30;99.90;;;;;;5031845;28;20067;-76
2022/11/19 06:58:50;;;;;;;2.35;2.20;;;-0.20;99.90;;;;;;5031520;28;20079;-75
2022/11/19 07:01:16;;;;;;;2.33;2.17;;;-0.20;99.90;;;;;;5031846;28;20021;-75
2022/11/19 07:03:42;;;;;;;1.52;1.50;;;-0.20;99.90;;;;;;5031647;28;20030;-75
2022/11/19 07:06:08;;;;;;;5.10;3.55;;;-0.10;99.90;;;;;;5019068;28;20180;-75
2022/11/19 07:08:35;;;;;;;2.22;2.13;;;-0.10;99.90;;;;;;5031103;28;20032;-75
2022/11/19 07:11:24;;;;;;;2.30;2.25;;;-0.20;99.90;;;;;;5031626;28;20021;-75
2022/11/19 07:13:56;;;;;;;;;;;-0.10;99.90;;;;;;5031919;28;20022;-75
2022/11/19 07:16:22;;;;;;;1.30;1.30;;;0.10;99.90;;;;;;5018517;28;19912;-76
2022/11/19 07:18:48;;;;;;;4.25;3.88;;;0.00;99.90;;;;;;5031459;28;20017;-75
2022/11/19 07:21:13;;;;;;;1.55;1.55;;;-0.10;99.90;;;;;;5031794;28;20529;-76
2022/11/19 07:23:39;;;;;;;2.65;2.25;;;-0.20;99.90;;;;;;5034839;28;20091;-76
2022/11/19 07:26:05;;;;;;;1.85;1.85;;;-0.10;99.90;;;;;;5004706;28;20052;-75
2022/11/19 07:28:30;;;;;;;3.08;2.97;;;-0.10;99.90;;;;;;5025548;28;20030;-76
2022/11/19 07:30:56;;;;;;;2.00;2.00;;;-0.20;99.90;;;;;;5028963;28;20029;-76
2022/11/19 07:33:21;;;;;;;2.92;2.83;;;-0.20;99.90;;;;;;5007911;28;20113;-75
2022/11/19 07:35:47;;;;;;;3.75;3.53;;;-0.20;99.90;;;;;;5022219;28;20029;-75
2022/11/19 07:38:12;;;;;;;1.95;1.95;;;-0.10;99.90;;;;;;5007863;28;20419;-75
2022/11/19 07:40:38;;;;;;;4.78;4.32;;;-0.10;99.90;;;;;;5028452;28;20541;-76
2022/11/19 07:43:03;;;;;;;5.38;2.65;;;-0.10;99.90;;;;;;5025411;28;20078;-75
2022/11/19 07:45:29;;;;;;;4.18;3.70;;;-0.20;99.90;;;;;;5032215;28;20030;-75
2022/11/19 07:47:54;;;;;;;2.42;2.33;;;-0.10;99.90;;;;;;5025103;28;20104;-75
2022/11/19 07:50:20;;;;;;;8.07;4.93;;;-0.10;99.90;;;;;;5039800;28;20057;-75
2022/11/19 07:52:45;;;;;;;3.25;2.95;;;0.00;99.90;;;;;;5034813;28;20104;-75
2022/11/19 07:55:11;;;;;;;2.65;2.55;;;0.00;99.90;;;;;;5034927;28;20037;-76
2022/11/19 07:57:37;;;;;;;1.90;1.90;;;0.10;99.90;;;;;;5034332;28;20026;-75
2022/11/19 08:00:06;;;;;;;1.98;1.98;;;0.10;99.90;;;;;;5034723;28;20025;-75
2022/11/19 08:02:32;;;;;;;3.72;3.22;;;0.10;99.90;;;;;;5034774;28;20029;-76
2022/11/19 08:04:58;;;;;;;1.73;1.73;;;0.10;99.90;;;;;;5022851;28;20026;-75
2022/11/19 08:07:23;;;;;;;2.58;2.47;;;0.30;99.90;;;;;;5027887;28;20036;-75
2022/11/19 08:09:49;;;;;;;1.77;1.77;;;0.40;99.90;;;;;;5021854;28;20105;-75
2022/11/19 08:12:14;;;;;;;1.75;1.75;;;0.40;99.90;;;;;;5026050;28;20033;-74
2022/11/19 08:14:40;;;;;;;2.47;2.28;;;0.40;99.90;;;;;;5034671;28;20029;-75
2022/11/19 08:19:49;;;;;;;3.28;3.00;;;0.30;99.90;;;;;;5034857;28;20438;-75
2022/11/19 08:22:15;;;;;;;2.15;2.05;;;0.50;99.90;;;;;;5020871;28;20021;-75
2022/11/19 08:24:40;;;;;;;1.90;1.90;;;0.50;99.90;;;;;;5034666;28;20029;-75
2022/11/19 08:27:06;;;;;;;4.35;3.80;;;0.60;99.90;;;;;;5034679;28;20084;-75
2022/11/19 08:29:31;;;;;;;1.90;1.90;;;0.50;99.90;;;;;;5035418;28;20017;-75
2022/11/19 08:31:57;;;;;;;1.88;1.88;;;0.70;99.90;;;;;;5035001;28;20021;-75
2022/11/19 08:34:22;;;;;;;3.88;3.63;;;0.70;99.90;;;;;;5016879;28;20103;-75
2022/11/19 08:36:48;;;;;;;1.88;1.85;;;0.60;99.90;;;;;;5033817;28;20034;-73
2022/11/19 08:39:14;;;;;;;2.58;2.47;;;0.60;99.90;;;;;;5016867;28;20032;-75
2022/11/19 08:44:23;;;;;;;2.85;2.75;;;0.50;99.90;;;;;;5022809;28;20559;-74
2022/11/19 08:46:49;;;;;;;2.72;2.63;;;0.40;99.90;;;;;;5033761;28;20100;-75
2022/11/19 08:49:15;;;;;;;2.97;2.88;;;0.50;99.90;;;;;;5016774;28;20022;-75
2022/11/19 08:51:40;;;;;;;2.78;2.67;;;0.50;99.90;;;;;;5034445;28;20549;-75
2022/11/19 08:54:06;;;;;;;6.18;4.65;;;0.60;99.90;;;;;;5034399;28;20021;-74
2022/11/19 08:56:32;;;;;;;2.42;2.33;;;0.40;99.90;;;;;;5034609;28;20475;-74
2022/11/19 08:58:57;;;;;;;6.25;5.88;;;0.50;99.90;;;;;;5034182;28;20383;-75
2022/11/19 09:01:23;;;;;;;7.38;6.05;;;0.50;99.90;;;;;;5034196;28;20639;-75
2022/11/19 09:03:49;;;;;;;4.28;3.53;;;0.50;99.90;;;;;;5033611;28;20407;-75
2022/11/19 09:06:14;;;;;;;3.38;3.25;;;0.50;99.90;;;;;;5033633;28;20036;-75
2022/11/19 09:08:40;;;;;;;2.78;2.67;;;0.50;99.90;;;;;;5033288;28;20029;-74
2022/11/19 09:11:08;;;;;;;1.92;1.92;;;0.60;99.90;;;;;;5033743;28;20030;-75
2022/11/19 09:13:34;;;;;;;2.63;2.53;;;0.80;99.90;;;;;;5033537;28;20394;-75
2022/11/19 09:16:00;;;;;;;3.65;3.45;;;0.60;99.90;;;;;;5015802;28;20116;-73
2022/11/19 09:18:25;;;;;;;2.05;2.05;;;0.50;99.90;;;;;;5032856;28;20032;-76
2022/11/19 09:20:55;;;;;;;2.40;2.30;;;0.50;99.90;;;;;;5033430;28;20026;-76
2022/11/19 09:23:23;;;;;;;1.90;1.90;;;0.50;99.90;;;;;;5033346;28;20116;-74
2022/11/19 09:25:58;;;;;;;1.85;1.85;;;0.60;99.90;;;;;;5015571;28;20487;-75
2022/11/19 09:28:24;;;;;;;2.00;2.00;;;0.70;99.90;;;;;;5039202;28;20124;-75
2022/11/19 09:30:57;;;;;;;2.75;2.65;;;0.60;99.90;;;;;;5018807;28;20029;-75
2022/11/19 09:33:24;;;;;;;1.83;1.83;;;0.60;99.90;;;;;;5033138;28;20049;-75
2022/11/19 09:35:49;;;;;;;2.45;2.35;;;0.70;99.90;;;;;;5015733;28;20072;-75
2022/11/19 09:38:15;;;;;;;1.80;1.80;;;0.70;99.90;;;;;;5032429;28;20033;-76
2022/11/19 09:40:54;;;;;;;1.85;1.77;;;0.70;99.90;;;;;;5019823;28;20030;-75
2022/11/19 09:43:39;;;;;;;2.67;2.58;;;0.80;99.90;;;;;;5043532;28;20544;-75
2022/11/19 09:46:29;;;;;;;2.70;2.60;;;0.60;99.90;;;;;;5025705;28;20029;-76
2022/11/19 09:49:02;;;;;;;1.90;1.90;;;0.70;99.90;;;;;;5032386;28;20035;-75
2022/11/19 09:51:31;;;;;;;4.00;3.90;;;0.60;99.90;;;;;;5032663;28;20029;-75
2022/11/19 09:54:03;;;;;;;2.22;2.17;;;0.70;99.90;;;;;;5014916;28;20028;-75
2022/11/19 09:56:39;;;;;;;1.83;1.83;;;0.80;99.90;;;;;;5014726;28;20440;-76
2022/11/19 09:59:24;;;;;;;;;;;0.70;99.90;;;;;;5033090;28;20021;-76
2022/11/19 10:01:51;;;;;;;2.30;2.22;;;0.90;99.90;;;;;;5032685;28;19959;-75
2022/11/19 10:04:24;;;;;;;2.00;2.00;;;0.80;99.90;;;;;;5014784;28;20510;-75
2022/11/19 10:06:59;;;;;;;3.45;3.25;;;0.80;99.90;;;;;;5032468;28;20483;-76
2022/11/19 10:09:48;;;;;;;3.50;3.20;;;0.80;99.90;;;;;;5016729;28;20487;-75
2022/11/19 10:12:42;;;;;;;2.30;2.20;;;0.90;99.90;;;;;;4978566;28;20148;-75
2022/11/19 10:15:36;;;;;;;3.55;3.35;;;1.00;99.90;;;;;;5019843;28;20061;-75
2022/11/19 10:18:50;;;;;;;2.30;2.20;;;1.20;99.90;;;;;;5031802;28;20034;-75
2022/11/19 10:21:26;;;;;;;3.53;3.30;;;1.30;99.90;;;;;;5010607;28;20037;-75
2022/11/19 10:24:16;;;;;;;2.10;2.10;;;1.20;99.90;;;;;;5032046;28;20030;-74
2022/11/19 10:26:47;;;;;;;9.00;3.88;;;1.10;99.90;;;;;;5003601;28;20017;-75
2022/11/19 10:29:18;;;;;;;2.45;2.35;;;1.20;99.90;;;;;;5032826;28;20435;-73
2022/11/19 10:31:50;;;;;;;2.05;2.05;;;1.30;99.90;;;;;;5033597;28;20022;-74
2022/11/19 10:34:35;;;;;;;2.10;2.10;;;1.50;99.90;;;;;;5019351;28;20021;-74
2022/11/19 10:37:16;;;;;;;2.40;2.30;;;1.70;99.90;;;;;;5019041;28;20113;-74
2022/11/19 10:39:51;;;;;;;1.90;1.90;;;1.80;99.90;;;;;;5032149;28;20025;-75
2022/11/19 10:42:27;;;;;;;2.58;2.47;;;1.60;99.90;;;;;;5032307;28;20514;-74
2022/11/19 10:45:14;;;;;;;2.70;2.60;;;1.50;99.90;;;;;;5032164;28;20112;-74
2022/11/19 10:47:52;;;;;;;2.38;2.28;;;1.40;99.90;;;;;;5032192;28;20511;-73
2022/11/19 10:50:21;;;;;;;2.50;2.40;;;1.40;99.90;;;;;;5031735;28;20030;-75
2022/11/19 10:53:06;;;;;;;6.93;6.15;;;1.50;99.90;;;;;;5014058;28;20558;-74
2022/11/19 10:55:39;;;;;;;4.72;4.47;;;1.60;99.90;;;;;;5031624;28;20373;-74
2022/11/19 10:58:14;;;;;;;2.15;2.13;;;1.60;99.90;;;;;;5032756;28;20064;-75
2022/11/19 11:00:40;;;;;;;2.67;2.58;;;1.60;99.90;;;;;;5014001;28;20152;-74
2022/11/19 11:03:19;;;;;;;1.95;1.95;;;1.50;99.90;;;;;;5031737;28;20075;-75
2022/11/19 11:05:55;;;;;;;3.33;3.17;;;1.60;99.90;;;;;;5031883;28;20052;-75
2022/11/19 11:08:21;;;;;;;2.53;2.42;;;1.80;99.90;;;;;;5031513;28;20022;-73
2022/11/19 11:10:46;;;;;;;3.22;3.03;;;1.80;99.90;;;;;;5031582;28;20161;-73
2022/11/19 11:16:41;;;;;;;3.70;3.50;;;1.50;99.90;;;;;;5029807;28;20044;-72
2022/11/19 11:19:14;;;;;;;4.43;4.07;;;1.50;99.90;;;;;;5030020;28;20495;-75
2022/11/19 11:21:42;;;;;;;8.10;7.57;;;1.60;99.90;;;;;;5030444;28;20075;-74
2022/11/19 11:24:09;;;;;;;3.17;3.08;;;1.60;99.90;;;;;;5030098;28;20399;-75
2022/11/19 11:26:36;;;;;;;2.83;2.72;;;1.40;99.90;;;;;;5030940;28;20037;-75
2022/11/19 11:29:11;;;;;;;2.30;2.20;;;1.60;99.90;;;;;;5031221;28;20113;-75
2022/11/19 11:31:42;;;;;;;4.57;4.20;;;1.40;99.90;;;;;;5013551;28;20037;-75
2022/11/19 11:34:26;;;;;;;2.25;2.17;;;1.40;99.90;;;;;;5031299;28;20105;-74
2022/11/19 11:36:52;;;;;;;2.40;2.30;;;1.20;99.90;;;;;;5031193;28;20029;-75
2022/11/19 11:39:28;;;;;;;3.50;3.20;;;1.20;99.90;;;;;;5031382;28;20030;-75
2022/11/19 11:41:55;;;;;;;2.05;2.05;;;1.30;99.90;;;;;;5013615;28;20022;-75
2022/11/19 11:44:29;;;;;;;2.30;2.20;;;1.40;99.90;;;;;;5031277;28;20140;-75
2022/11/19 11:46:57;;;;;;;2.80;2.70;;;1.30;99.90;;;;;;5031110;28;20479;-75
2022/11/19 11:49:23;;;;;;;2.25;2.17;;;1.20;99.90;;;;;;5031312;28;20037;-74
2022/11/19 11:52:12;;;;;;;1.80;1.80;;;1.20;99.90;;;;;;5031101;28;20033;-74
2022/11/19 11:54:53;;;;;;;2.47;2.38;;;1.10;99.90;;;;;;5031162;28;20022;-74
2022/11/19 11:57:21;;;;;;;1.88;1.88;;;1.20;99.90;;;;;;5031056;28;20032;-74
2022/11/19 11:59:47;;;;;;;1.90;1.90;;;1.30;99.90;;;;;;5031009;28;20032;-74
2022/11/19 12:02:25;;;;;;;1.85;1.85;;;1.20;99.90;;;;;;5030867;28;20036;-74
2022/11/19 12:04:53;;;;;;;2.05;2.05;;;1.20;99.90;;;;;;5013167;28;20029;-74
2022/11/19 12:08:01;;;;;;;1.85;1.85;;;1.00;99.90;;;;;;5013229;28;20439;-74
2022/11/19 12:10:48;;;;;;;1.90;1.90;;;1.20;99.90;;;;;;5028521;28;20021;-74
2022/11/19 12:13:33;;;;;;;2.15;2.15;;;1.40;99.90;;;;;;5034711;28;20033;-74
2022/11/19 12:16:38;;;;;;;2.50;2.40;;;1.30;99.90;;;;;;5034516;28;20144;-73
2022/11/19 12:19:26;;;;;;;1.70;1.70;;;1.20;99.90;;;;;;5016810;28;20025;-74
2022/11/19 12:22:30;;;;;;;1.83;1.83;;;1.10;99.90;;;;;;5034432;28;20035;-74
2022/11/19 12:25:04;;;;;;;2.63;2.53;;;1.10;99.90;;;;;;4986549;28;20087;-74
2022/11/19 12:27:57;;;;;;;1.73;1.73;;;1.00;99.90;;;;;;5034236;28;20051;-73
2022/11/19 12:30:30;;;;;;;1.77;1.77;;;1.10;99.90;;;;;;5034423;28;20056;-74
2022/11/19 12:33:21;;;;;;;2.40;2.30;;;1.10;99.90;;;;;;5034471;28;20025;-73
2022/11/19 12:35:48;;;;;;;2.00;2.00;;;1.20;99.90;;;;;;5013467;28;20091;-73
2022/11/19 12:38:20;;;;;;;2.15;2.05;;;1.30;99.90;;;;;;5040051;28;20083;-73
2022/11/19 12:41:13;;;;;;;2.63;2.42;;;1.10;99.90;;;;;;5021155;28;20398;-73
2022/11/19 12:43:55;;;;;;;3.58;3.47;;;1.00;99.90;;;;;;5030173;28;20026;-73
2022/11/19 12:46:47;;;;;;;2.00;2.00;;;1.00;99.90;;;;;;5034162;28;20793;-73
2022/11/19 12:49:35;;;;;;;2.00;2.00;;;1.00;99.90;;;;;;5020170;28;20503;-73
2022/11/19 12:52:13;;;;;;;1.77;1.77;;;1.20;99.90;;;;;;5033648;28;20056;-73
2022/11/19 12:54:54;;;;;;;1.58;1.58;;;1.30;99.90;;;;;;5033921;28;20028;-73
2022/11/19 12:57:51;;;;;;;1.58;1.58;;;1.10;99.90;;;;;;5020998;28;20017;-73
2022/11/19 13:00:19;;;;;;;1.70;1.70;;;1.20;99.90;;;;;;5033843;28;20400;-73
2022/11/19 13:03:04;;;;;;;1.60;1.60;;;1.20;99.90;;;;;;5033698;28;20120;-73
2022/11/19 13:05:56;;;;;;;1.80;1.80;;;1.40;99.90;;;;;;5022022;28;20487;-74
2022/11/19 13:08:38;;;;;;;1.42;1.42;;;1.40;99.90;;;;;;5033200;28;20479;-73
2022/11/19 13:11:12;;;;;;;1.55;1.55;;;1.40;99.90;;;;;;5033521;28;20033;-74
2022/11/19 13:13:43;;;;;;;1.90;1.90;;;1.40;99.90;;;;;;5025486;28;20069;-74
2022/11/19 13:16:10;;;;;;;15.40;4.22;;;1.40;99.90;;;;;;5027242;28;20109;-73
2022/11/19 13:18:39;;;;;;;4.25;4.05;;;1.40;99.90;;;;;;5021806;28;20126;-74
2022/11/19 13:21:15;;;;;;;1.60;1.60;;;1.40;99.90;;;;;;5019283;28;20146;-73
2022/11/19 13:23:44;;;;;;;2.10;2.00;;;1.40;99.90;;;;;;5015452;28;20247;-74
2022/11/19 13:26:18;;;;;;;2.33;2.22;;;1.20;99.90;;;;;;5017609;28;20033;-74
2022/11/19 13:28:54;;;;;;;1.70;1.70;;;1.00;99.90;;;;;;5032681;28;20033;-74
2022/11/19 13:31:43;;;;;;;1.60;1.60;;;0.80;99.90;;;;;;5020264;28;20548;-74
2022/11/19 13:34:24;;;;;;;1.50;1.50;;;0.80;99.90;;;;;;5033049;28;20385;-74
2022/11/19 13:37:11;;;;;;;2.72;2.63;;;0.80;99.90;;;;;;5014519;28;20060;-74